Time;durP1;ratioP1;P1;durP2;ratioP2;P2;SDS_P1;SDS_P2;PMS_P1;PMS_P2;Temp;Humidity;BMP_temperature;BMP_pressure;BME280_temperature;BME280_humidity;BME280_pressure;Samples;Min_cycle;Max_cycle;Signal;HPM_P1;HPM_P2
2022/07/25 00:00:53;;;;;;;5.35;4.38;;;20.10;99.90;;;;;;5041785;28;20463;-82
2022/07/25 00:03:19;;;;;;;5.80;4.47;;;20.10;99.90;;;;;;5040932;28;20045;-81
2022/07/25 00:05:45;;;;;;;6.45;4.93;;;20.10;99.90;;;;;;5028697;28;20384;-81
2022/07/25 00:08:11;;;;;;;5.30;4.80;;;20.00;99.90;;;;;;5050526;28;20392;-81
2022/07/25 00:10:36;;;;;;;4.80;4.30;;;19.90;99.90;;;;;;5051763;28;20418;-81
2022/07/25 00:13:02;;;;;;;6.03;4.97;;;19.90;99.90;;;;;;5063833;28;20064;-82
2022/07/25 00:15:28;;;;;;;7.35;5.10;;;19.80;99.90;;;;;;5043447;28;20033;-83
2022/07/25 00:17:53;;;;;;;6.07;4.70;;;19.80;99.90;;;;;;5031427;28;20032;-81
2022/07/25 00:20:19;;;;;;;7.32;5.28;;;19.70;99.90;;;;;;5044746;28;20095;-81
2022/07/25 00:22:44;;;;;;;5.65;5.15;;;19.70;99.90;;;;;;5022204;28;20071;-81
2022/07/25 00:25:10;;;;;;;5.60;5.10;;;19.60;99.90;;;;;;5051648;28;20071;-82
2022/07/25 00:27:36;;;;;;;5.75;4.80;;;19.60;99.90;;;;;;5051517;28;20037;-82
2022/07/25 00:30:02;;;;;;;5.25;4.68;;;19.50;99.90;;;;;;5050554;28;20078;-81
2022/07/25 00:32:28;;;;;;;6.18;5.28;;;19.50;99.90;;;;;;5033244;28;20041;-82
2022/07/25 00:34:53;;;;;;;6.05;5.32;;;19.40;99.90;;;;;;5048224;28;20056;-81
2022/07/25 00:37:19;;;;;;;7.22;5.32;;;19.40;99.90;;;;;;5014895;28;20127;-81
2022/07/25 00:39:45;;;;;;;6.32;4.97;;;19.30;99.90;;;;;;5016138;28;20037;-82
2022/07/25 00:42:10;;;;;;;6.70;5.70;;;19.20;99.90;;;;;;5047648;28;20036;-82
2022/07/25 00:44:36;;;;;;;5.78;5.25;;;19.20;99.90;;;;;;5033008;28;20146;-82
2022/07/25 00:47:02;;;;;;;6.13;5.32;;;19.20;99.90;;;;;;5034455;28;20033;-82
2022/07/25 00:49:27;;;;;;;5.75;5.15;;;19.10;99.90;;;;;;5051474;28;20037;-82
2022/07/25 00:51:53;;;;;;;6.03;5.43;;;19.10;99.90;;;;;;5050854;28;20499;-82
2022/07/25 00:54:20;;;;;;;7.15;5.40;;;19.10;99.90;;;;;;5046629;28;20032;-82
2022/07/25 00:56:46;;;;;;;5.53;5.00;;;19.00;99.90;;;;;;5034457;28;20037;-81
2022/07/25 00:59:12;;;;;;;6.55;5.88;;;19.00;99.90;;;;;;5034484;28;20079;-81
2022/07/25 01:01:38;;;;;;;6.03;5.43;;;18.90;99.90;;;;;;5039321;28;20072;-81
2022/07/25 01:04:05;;;;;;;6.43;5.32;;;18.90;99.90;;;;;;5049928;28;20086;-82
2022/07/25 01:06:31;;;;;;;6.75;6.05;;;18.80;99.90;;;;;;5033244;28;20037;-82
2022/07/25 01:08:57;;;;;;;7.47;6.68;;;18.80;99.90;;;;;;5042134;28;20037;-82
2022/07/25 01:11:23;;;;;;;7.32;6.55;;;18.70;99.90;;;;;;5043228;28;20036;-82
2022/07/25 01:13:49;;;;;;;8.13;7.28;;;18.70;99.90;;;;;;5024511;28;20403;-81
2022/07/25 01:16:14;;;;;;;8.80;7.75;;;18.60;99.90;;;;;;5050023;28;20036;-81
2022/07/25 01:18:40;;;;;;;10.77;8.27;;;18.60;99.90;;;;;;5033289;28;20044;-82
2022/07/25 01:21:06;;;;;;;10.75;8.55;;;18.60;99.90;;;;;;5040014;28;20033;-81
2022/07/25 01:23:32;;;;;;;9.60;8.63;;;18.60;99.90;;;;;;5063559;28;20503;-82
2022/07/25 01:25:58;;;;;;;10.02;8.70;;;18.60;99.90;;;;;;5033804;28;20052;-82
2022/07/25 01:28:24;;;;;;;10.82;9.43;;;18.60;99.90;;;;;;5049504;28;20033;-82
2022/07/25 01:30:49;;;;;;;10.27;9.00;;;18.70;99.90;;;;;;5065952;28;20044;-82
2022/07/25 01:33:16;;;;;;;10.05;8.98;;;18.70;99.90;;;;;;5033314;28;20063;-81
2022/07/25 01:35:42;;;;;;;10.10;9.02;;;18.60;99.90;;;;;;5048903;28;20036;-81
2022/07/25 01:38:07;;;;;;;12.32;10.02;;;18.60;99.90;;;;;;5049225;28;20036;-81
2022/07/25 01:40:33;;;;;;;11.68;10.38;;;18.70;99.90;;;;;;5030387;28;20041;-81
2022/07/25 01:42:59;;;;;;;10.10;9.10;;;18.80;99.90;;;;;;5051923;28;20037;-82
2022/07/25 01:45:24;;;;;;;11.52;10.35;;;18.80;99.90;;;;;;5025657;28;20033;-82
2022/07/25 01:47:50;;;;;;;10.55;9.48;;;18.90;99.90;;;;;;5027696;28;20510;-83
2022/07/25 01:50:16;;;;;;;10.93;9.82;;;18.90;99.90;;;;;;5027089;28;20519;-81
2022/07/25 01:52:43;;;;;;;10.65;9.63;;;19.00;99.90;;;;;;5016454;28;20322;-81
2022/07/25 01:55:09;;;;;;;10.80;9.77;;;19.00;99.90;;;;;;5034486;28;20126;-82
2022/07/25 01:57:34;;;;;;;10.48;9.48;;;19.00;99.90;;;;;;5066681;28;20025;-81
2022/07/25 02:00:00;;;;;;;11.02;9.88;;;19.00;99.90;;;;;;5055562;28;20256;-82
2022/07/25 02:02:26;;;;;;;11.07;9.90;;;19.00;99.90;;;;;;5040148;28;20068;-81
2022/07/25 02:04:52;;;;;;;10.32;9.32;;;19.00;99.90;;;;;;5061260;28;20116;-81
2022/07/25 02:07:17;;;;;;;11.38;10.27;;;19.00;99.90;;;;;;5033347;28;20036;-82
2022/07/25 02:09:43;;;;;;;10.55;9.45;;;18.90;99.90;;;;;;5032960;28;20037;-81
2022/07/25 02:12:09;;;;;;;11.23;10.18;;;18.90;99.90;;;;;;5032647;28;20115;-81
2022/07/25 02:14:34;;;;;;;11.02;9.93;;;18.90;99.90;;;;;;5038033;28;20038;-81
2022/07/25 02:17:00;;;;;;;11.82;9.45;;;18.90;99.90;;;;;;5027277;28;20033;-82
2022/07/25 02:19:25;;;;;;;12.77;9.88;;;18.80;99.90;;;;;;5049956;28;20033;-82
2022/07/25 02:21:51;;;;;;;12.10;10.90;;;18.80;99.90;;;;;;5050128;28;20041;-83
2022/07/25 02:24:16;;;;;;;12.57;11.10;;;18.80;99.90;;;;;;5032785;28;20064;-81
2022/07/25 02:26:42;;;;;;;12.52;10.70;;;18.70;99.90;;;;;;5033477;28;20128;-82
2022/07/25 02:29:08;;;;;;;12.00;10.80;;;18.60;99.90;;;;;;5026572;28;20502;-82
2022/07/25 02:31:33;;;;;;;10.68;9.57;;;18.70;99.90;;;;;;5035609;28;20040;-81
2022/07/25 02:33:59;;;;;;;11.65;10.55;;;18.70;99.90;;;;;;5033847;28;20040;-81
2022/07/25 02:36:24;;;;;;;11.52;10.32;;;18.70;99.90;;;;;;5033464;28;20037;-81
2022/07/25 02:38:50;;;;;;;11.63;10.43;;;18.70;99.90;;;;;;5070098;28;20040;-82
2022/07/25 02:41:16;;;;;;;11.55;10.35;;;18.70;99.90;;;;;;5048517;28;20514;-82
2022/07/25 02:43:41;;;;;;;13.00;10.20;;;18.60;99.90;;;;;;5033587;28;20510;-82
2022/07/25 02:46:07;;;;;;;10.80;9.75;;;18.70;99.90;;;;;;5047117;28;20124;-81
2022/07/25 02:48:33;;;;;;;11.23;10.13;;;18.70;99.90;;;;;;5053664;28;20090;-81
2022/07/25 02:50:58;;;;;;;11.65;9.93;;;18.60;99.90;;;;;;5036804;28;20040;-82
2022/07/25 02:53:24;;;;;;;11.05;9.82;;;18.60;99.90;;;;;;5051902;28;20037;-82
2022/07/25 02:55:50;;;;;;;11.45;10.25;;;18.50;99.90;;;;;;5052632;28;20064;-81
2022/07/25 02:58:15;;;;;;;11.75;10.38;;;18.50;99.90;;;;;;5053350;28;20408;-83
2022/07/25 03:00:41;;;;;;;12.18;10.32;;;18.50;99.90;;;;;;5035883;28;20052;-81
2022/07/25 03:03:07;;;;;;;12.18;10.20;;;18.40;99.90;;;;;;5052415;28;20571;-81
2022/07/25 03:05:32;;;;;;;12.40;10.05;;;18.40;99.90;;;;;;5036507;28;20128;-82
2022/07/25 03:07:58;;;;;;;11.15;9.77;;;18.40;99.90;;;;;;5027987;28;20044;-82
2022/07/25 03:10:23;;;;;;;11.52;10.32;;;18.40;99.90;;;;;;5065433;28;20063;-82
2022/07/25 03:12:49;;;;;;;11.60;10.50;;;18.30;99.90;;;;;;5052264;28;20087;-82
2022/07/25 03:15:15;;;;;;;13.43;12.10;;;18.30;99.90;;;;;;5030725;28;20060;-82
2022/07/25 03:17:41;;;;;;;11.63;10.52;;;18.30;99.90;;;;;;5067247;28;20120;-81
2022/07/25 03:20:07;;;;;;;14.38;12.35;;;18.20;99.90;;;;;;5016986;28;20420;-82
2022/07/25 03:22:33;;;;;;;13.23;12.00;;;18.20;99.90;;;;;;5026256;28;20448;-82
2022/07/25 03:24:59;;;;;;;12.48;11.27;;;18.10;99.90;;;;;;5052911;28;20037;-81
2022/07/25 03:27:25;;;;;;;15.20;12.20;;;18.10;99.90;;;;;;5035273;28;20487;-83
2022/07/25 03:29:51;;;;;;;12.90;11.65;;;18.00;99.90;;;;;;5035919;28;20060;-83
2022/07/25 03:32:17;;;;;;;13.45;12.05;;;18.00;99.90;;;;;;5055052;28;20455;-82
2022/07/25 03:34:42;;;;;;;14.73;12.63;;;18.00;99.90;;;;;;5035533;28;20033;-81
2022/07/25 03:37:08;;;;;;;14.48;13.07;;;18.00;99.90;;;;;;5043164;28;20025;-82
2022/07/25 03:39:34;;;;;;;14.38;12.85;;;18.00;99.90;;;;;;5036208;28;20059;-82
2022/07/25 03:42:00;;;;;;;15.88;14.27;;;17.90;99.90;;;;;;5034986;28;20041;-82
2022/07/25 03:44:25;;;;;;;14.75;12.18;;;17.90;99.90;;;;;;5031836;28;20442;-81
2022/07/25 03:46:51;;;;;;;14.32;12.93;;;18.00;99.90;;;;;;5051869;28;20116;-84
2022/07/25 03:49:17;;;;;;;15.02;13.43;;;18.00;99.90;;;;;;5035667;28;20044;-81
2022/07/25 03:51:44;;;;;;;13.85;12.45;;;18.10;99.90;;;;;;5034063;28;20399;-82
2022/07/25 03:54:12;;;;;;;16.55;14.90;;;18.00;99.90;;;;;;5035130;28;20309;-81
2022/07/25 03:56:40;;;;;;;15.63;13.55;;;18.00;99.90;;;;;;5018205;28;20120;-82
2022/07/25 03:59:08;;;;;;;14.75;13.25;;;17.90;99.90;;;;;;5032435;28;20076;-82
2022/07/25 04:01:34;;;;;;;17.30;15.50;;;17.90;99.90;;;;;;5049350;28;20461;-81
2022/07/25 04:03:59;;;;;;;17.63;15.93;;;17.90;99.90;;;;;;5048690;28;20033;-82
2022/07/25 04:06:25;;;;;;;17.38;14.75;;;17.80;99.90;;;;;;5043913;28;20045;-82
2022/07/25 04:08:52;;;;;;;16.35;14.75;;;17.80;99.90;;;;;;5043521;28;20078;-82
2022/07/25 04:11:18;;;;;;;15.38;13.77;;;17.80;99.90;;;;;;5035578;28;20037;-82
2022/07/25 04:13:43;;;;;;;14.70;13.20;;;17.80;99.90;;;;;;5033432;28;20033;-81
2022/07/25 04:16:10;;;;;;;14.25;12.77;;;17.90;99.90;;;;;;5052043;28;20391;-82
2022/07/25 04:18:36;;;;;;;16.13;13.50;;;18.00;99.90;;;;;;5034183;28;20505;-82
2022/07/25 04:21:03;;;;;;;14.55;13.02;;;18.00;99.90;;;;;;5052196;28;20037;-82
2022/07/25 04:23:30;;;;;;;14.65;13.15;;;18.10;99.90;;;;;;5035342;28;20119;-82
2022/07/25 04:25:56;;;;;;;16.38;14.05;;;18.10;99.90;;;;;;5035446;28;20047;-82
2022/07/25 04:28:23;;;;;;;14.15;12.75;;;18.10;99.90;;;;;;5050440;28;20036;-82
2022/07/25 04:30:49;;;;;;;13.98;12.48;;;18.30;99.90;;;;;;5051471;28;20041;-82
2022/07/25 04:33:15;;;;;;;15.55;13.43;;;18.40;99.90;;;;;;5028465;28;20035;-82
2022/07/25 04:35:41;;;;;;;14.52;13.13;;;18.50;99.90;;;;;;5034283;28;20033;-83
2022/07/25 04:38:06;;;;;;;15.10;13.57;;;18.50;99.90;;;;;;5021675;28;20034;-82
2022/07/25 04:40:32;;;;;;;15.60;14.00;;;18.60;99.90;;;;;;5044000;28;20037;-82
2022/07/25 04:42:57;;;;;;;14.68;13.18;;;18.60;99.90;;;;;;5034808;28;20063;-82
2022/07/25 04:45:23;;;;;;;15.57;14.00;;;18.70;99.90;;;;;;5035074;28;20465;-82
2022/07/25 04:47:49;;;;;;;15.60;13.35;;;18.80;99.90;;;;;;5037454;28;20069;-82
2022/07/25 04:50:15;;;;;;;14.98;13.48;;;18.90;99.90;;;;;;5032859;28;20495;-82
2022/07/25 04:52:41;;;;;;;15.20;13.60;;;19.10;99.90;;;;;;5026449;28;20059;-82
2022/07/25 04:55:07;;;;;;;15.65;13.48;;;19.10;99.90;;;;;;5044695;28;20040;-82
2022/07/25 04:57:33;;;;;;;16.73;14.35;;;19.30;99.90;;;;;;5034381;28;20074;-83
2022/07/25 04:59:59;;;;;;;16.05;14.38;;;19.30;99.90;;;;;;5049099;28;20033;-82
2022/07/25 05:02:25;;;;;;;15.98;14.38;;;19.50;99.90;;;;;;5034909;28;20123;-82
2022/07/25 05:04:51;;;;;;;15.88;14.27;;;19.50;99.90;;;;;;5051221;28;20487;-83
2022/07/25 05:07:17;;;;;;;17.50;15.18;;;19.60;99.90;;;;;;5032465;28;20069;-82
2022/07/25 05:09:43;;;;;;;16.65;15.02;;;19.70;99.90;;;;;;5040773;28;20040;-82
2022/07/25 05:12:08;;;;;;;17.20;15.10;;;19.80;99.90;;;;;;5033138;28;20033;-82
2022/07/25 05:14:34;;;;;;;16.30;14.60;;;19.80;99.90;;;;;;5050324;28;20029;-82
2022/07/25 05:16:59;;;;;;;16.75;14.40;;;19.90;99.90;;;;;;5046697;28;20033;-83
2022/07/25 05:19:25;;;;;;;16.13;14.40;;;20.00;99.90;;;;;;5025304;28;20341;-83
2022/07/25 05:21:51;;;;;;;15.35;13.85;;;20.00;99.90;;;;;;5031633;28;20511;-81
2022/07/25 05:24:17;;;;;;;17.25;15.40;;;20.10;99.90;;;;;;5031079;28;20489;-80
2022/07/25 05:26:43;;;;;;;16.08;14.27;;;20.10;99.90;;;;;;5050735;28;20068;-80
2022/07/25 05:29:09;;;;;;;16.83;15.05;;;20.10;99.90;;;;;;5031571;28;20399;-79
2022/07/25 05:31:35;;;;;;;16.95;15.25;;;20.20;99.90;;;;;;5047119;28;20120;-80
2022/07/25 05:34:01;;;;;;;15.27;13.75;;;20.20;99.90;;;;;;5038610;28;20036;-83
2022/07/25 05:36:26;;;;;;;16.80;15.20;;;20.30;99.90;;;;;;5031700;28;20036;-83
2022/07/25 05:38:53;;;;;;;16.17;14.57;;;20.30;99.90;;;;;;5041419;28;20411;-83
2022/07/25 05:41:19;;;;;;;16.50;14.80;;;20.40;99.90;;;;;;5026432;28;20147;-83
2022/07/25 05:43:46;;;;;;;17.00;14.68;;;20.50;99.90;;;;;;5031019;28;20051;-82
2022/07/25 05:46:12;;;;;;;16.17;14.57;;;20.50;99.90;;;;;;5033882;28;20037;-84
2022/07/25 05:48:38;;;;;;;17.25;14.32;;;20.60;99.90;;;;;;5049884;28;20051;-84
2022/07/25 05:51:03;;;;;;;15.85;14.30;;;20.70;99.90;;;;;;5031611;28;20037;-84
2022/07/25 05:53:29;;;;;;;16.23;14.52;;;20.70;99.90;;;;;;5023302;28;20441;-84
2022/07/25 05:55:54;;;;;;;15.55;13.85;;;20.90;99.90;;;;;;5048646;28;20079;-84
2022/07/25 05:58:20;;;;;;;15.80;13.80;;;21.00;99.90;;;;;;5045964;28;20083;-84
2022/07/25 06:00:46;;;;;;;15.98;14.38;;;21.10;99.90;;;;;;5026358;28;20034;-84
2022/07/25 06:03:11;;;;;;;14.20;12.80;;;21.10;99.90;;;;;;5030987;28;20033;-83
2022/07/25 06:05:37;;;;;;;14.43;12.93;;;21.20;99.90;;;;;;5031031;28;20407;-83
2022/07/25 06:08:03;;;;;;;13.85;12.48;;;21.30;99.90;;;;;;5033629;28;20033;-84
2022/07/25 06:10:28;;;;;;;17.17;13.45;;;21.40;99.90;;;;;;5029428;28;20541;-85
2022/07/25 06:12:54;;;;;;;12.98;11.68;;;21.40;99.90;;;;;;5033207;28;20040;-85
2022/07/25 06:15:20;;;;;;;14.18;12.82;;;21.40;99.90;;;;;;5049057;28;20044;-83
2022/07/25 06:17:45;;;;;;;14.90;11.95;;;21.50;99.90;;;;;;5061754;28;20063;-83
2022/07/25 06:20:11;;;;;;;14.18;12.73;;;21.60;99.90;;;;;;5022799;28;20709;-84
2022/07/25 06:22:37;;;;;;;14.32;12.20;;;21.60;99.90;;;;;;5033707;28;20033;-83
2022/07/25 06:25:03;;;;;;;13.38;12.00;;;21.70;99.90;;;;;;5028011;28;20037;-83
2022/07/25 06:27:29;;;;;;;12.65;11.30;;;21.80;99.90;;;;;;5037341;28;20041;-85
2022/07/25 06:29:54;;;;;;;11.75;10.65;;;21.80;99.90;;;;;;5030801;28;20406;-84
2022/07/25 06:32:20;;;;;;;12.50;11.20;;;21.90;99.90;;;;;;5047310;28;20029;-84
2022/07/25 06:34:46;;;;;;;11.10;10.00;;;21.90;99.90;;;;;;5034944;28;20033;-84
2022/07/25 06:37:11;;;;;;;10.77;9.60;;;22.00;99.90;;;;;;5048134;28;20238;-86
2022/07/25 06:39:37;;;;;;;11.10;9.90;;;22.10;99.90;;;;;;5037361;28;20029;-87
2022/07/25 06:42:03;;;;;;;10.10;8.93;;;22.20;99.90;;;;;;5037333;28;20174;-86
2022/07/25 06:44:32;;;;;;;10.13;9.02;;;22.30;99.90;;;;;;5037469;28;20048;-86
2022/07/25 06:46:59;;;;;;;10.32;9.32;;;22.40;99.90;;;;;;5037051;28;20052;-84
2022/07/25 06:49:30;;;;;;;12.80;9.00;;;22.50;99.90;;;;;;5036996;28;20106;-85
2022/07/25 06:51:56;;;;;;;10.98;9.45;;;22.60;99.90;;;;;;5037275;28;20041;-86
2022/07/25 06:54:22;;;;;;;10.90;9.68;;;22.80;99.90;;;;;;5037000;28;20421;-85
2022/07/25 06:56:48;;;;;;;12.07;10.32;;;22.90;99.90;;;;;;5037072;28;20037;-85
2022/07/25 06:59:13;;;;;;;10.82;9.73;;;23.00;99.90;;;;;;5036900;28;20035;-84
2022/07/25 07:01:39;;;;;;;14.85;10.77;;;23.10;99.90;;;;;;5037275;28;20090;-86
2022/07/25 07:04:04;;;;;;;11.35;10.20;;;23.10;99.90;;;;;;5036949;28;20041;-85
2022/07/25 07:06:30;;;;;;;11.70;10.40;;;23.10;99.90;;;;;;5036886;28;20033;-86
2022/07/25 07:08:56;;;;;;;11.40;10.20;;;23.20;99.90;;;;;;5036609;28;20120;-85
2022/07/25 07:11:22;;;;;;;10.65;9.52;;;23.20;99.90;;;;;;5036756;28;20399;-85
2022/07/25 07:13:47;;;;;;;11.13;9.93;;;23.20;99.90;;;;;;5036708;28;20484;-86
2022/07/25 07:16:13;;;;;;;10.63;9.50;;;23.20;99.90;;;;;;5036635;28;20033;-85
2022/07/25 07:18:38;;;;;;;11.80;9.23;;;23.20;99.90;;;;;;5036504;28;20037;-86
2022/07/25 07:21:05;;;;;;;10.60;9.35;;;23.20;99.90;;;;;;5036651;28;20037;-86
2022/07/25 07:23:31;;;;;;;12.30;10.27;;;23.20;99.90;;;;;;5036192;28;20179;-85
2022/07/25 07:25:57;;;;;;;11.18;10.00;;;23.20;99.90;;;;;;5036881;28;20494;-85
2022/07/25 07:28:23;;;;;;;11.02;9.52;;;23.10;99.90;;;;;;5036375;28;20049;-85
2022/07/25 07:30:48;;;;;;;11.13;10.00;;;23.10;99.90;;;;;;5036270;28;20524;-86
2022/07/25 07:33:14;;;;;;;12.20;9.25;;;23.00;99.90;;;;;;5036719;28;20422;-85
2022/07/25 07:35:43;;;;;;;11.13;9.93;;;23.00;99.90;;;;;;5036594;28;20033;-85
2022/07/25 07:38:08;;;;;;;11.30;10.02;;;23.00;99.90;;;;;;5036217;28;20047;-86
2022/07/25 07:40:34;;;;;;;11.88;10.70;;;23.10;99.90;;;;;;5036515;28;20033;-87
2022/07/25 07:43:02;;;;;;;11.88;10.63;;;23.20;99.90;;;;;;5036383;28;20037;-86
2022/07/25 07:45:28;;;;;;;11.27;10.05;;;23.40;99.90;;;;;;5053065;28;20044;-84
2022/07/25 07:47:55;;;;;;;11.10;9.32;;;23.60;99.90;;;;;;5036007;28;20036;-85
2022/07/25 07:50:24;;;;;;;10.18;9.18;;;23.80;99.90;;;;;;5036222;28;20084;-86
2022/07/25 07:52:52;;;;;;;10.70;9.35;;;24.00;99.90;;;;;;5053189;28;20518;-86
2022/07/25 07:58:02;;;;;;;9.00;8.07;;;24.40;99.90;;;;;;5052632;28;20244;-87
2022/07/25 08:00:34;;;;;;;8.07;7.13;;;24.50;99.90;;;;;;5035959;28;20052;-85
2022/07/25 08:03:01;;;;;;;7.35;6.47;;;24.50;99.90;;;;;;5035853;28;20041;-84
2022/07/25 08:05:32;;;;;;;7.78;6.40;;;24.40;99.90;;;;;;5035829;28;20048;-86
2022/07/25 08:07:59;;;;;;;7.05;6.22;;;24.30;99.90;;;;;;5035975;28;20527;-85
2022/07/25 08:10:31;;;;;;;8.90;6.60;;;24.20;99.90;;;;;;5035620;28;20041;-85
2022/07/25 08:12:58;;;;;;;8.17;6.10;;;24.20;99.90;;;;;;5035681;28;20037;-86
2022/07/25 08:15:25;;;;;;;6.30;5.45;;;24.40;99.90;;;;;;5035944;28;20088;-85
2022/07/25 08:17:51;;;;;;;6.88;5.30;;;24.70;99.90;;;;;;5052017;28;20037;-85
2022/07/25 08:20:17;;;;;;;5.93;4.68;;;24.90;99.90;;;;;;5035465;28;20040;-85
2022/07/25 08:22:48;;;;;;;6.70;5.20;;;25.10;99.90;;;;;;5035343;28;20502;-86
2022/07/25 08:25:17;;;;;;;7.07;5.70;;;25.30;99.90;;;;;;5035343;28;20036;-85
2022/07/25 08:27:43;;;;;;;6.32;5.72;;;25.50;99.90;;;;;;5035250;28;20041;-86
2022/07/25 08:30:10;;;;;;;6.38;5.20;;;25.50;99.90;;;;;;5051668;28;20048;-85
2022/07/25 08:33:06;;;;;;;6.13;4.57;;;25.40;99.90;;;;;;5035592;28;20135;-88
2022/07/25 08:35:33;;;;;;;5.80;5.20;;;25.30;99.90;;;;;;5034762;28;20136;-86
2022/07/25 08:38:00;;;;;;;5.85;5.25;;;25.10;99.90;;;;;;5034931;28;20039;-85
2022/07/25 08:40:27;;;;;;;5.68;4.72;;;24.90;99.90;;;;;;5035012;28;20067;-86
2022/07/25 08:42:55;;;;;;;6.63;4.10;;;24.70;99.90;;;;;;5035531;28;20045;-87
2022/07/25 08:45:21;;;;;;;2.85;2.58;;;24.60;99.90;;;;;;5035048;28;20041;-85
2022/07/25 08:47:49;;;;;;;3.40;2.80;;;24.50;99.90;;;;;;5034878;28;20048;-85
2022/07/25 08:50:17;;;;;;;4.78;2.90;;;24.30;99.90;;;;;;5034768;28;20080;-85
2022/07/25 08:52:48;;;;;;;4.03;2.80;;;24.30;99.90;;;;;;5051454;28;20032;-86
2022/07/25 08:55:22;;;;;;;5.15;3.10;;;24.20;99.90;;;;;;5035045;28;20513;-86
2022/07/25 08:57:51;;;;;;;2.97;2.55;;;24.20;99.90;;;;;;5051329;28;20033;-86
2022/07/25 09:00:25;;;;;;;3.25;2.42;;;24.20;99.90;;;;;;5034763;28;20080;-86
2022/07/25 09:03:00;;;;;;;3.30;2.40;;;24.10;99.90;;;;;;5035291;28;20045;-85
2022/07/25 09:05:28;;;;;;;2.08;1.88;;;24.20;99.90;;;;;;5034765;28;20076;-84
2022/07/25 09:07:55;;;;;;;2.50;2.22;;;24.20;99.90;;;;;;5034403;28;20041;-85
2022/07/25 09:10:29;;;;;;;4.22;2.35;;;24.20;99.90;;;;;;5034371;28;20048;-84
2022/07/25 09:13:09;;;;;;;2.65;2.28;;;24.30;99.90;;;;;;5034811;28;20083;-86
2022/07/25 09:15:37;;;;;;;2.58;2.22;;;24.30;99.90;;;;;;5034601;28;20090;-85
2022/07/25 09:18:06;;;;;;;3.50;2.25;;;24.30;99.90;;;;;;5034244;28;20117;-86
2022/07/25 09:20:40;;;;;;;3.15;2.10;;;24.40;99.90;;;;;;5034332;28;20074;-85
2022/07/25 09:23:07;;;;;;;2.28;2.00;;;24.60;99.90;;;;;;5050975;28;20082;-86
2022/07/25 09:25:33;;;;;;;4.07;2.40;;;24.90;99.90;;;;;;5034450;28;20037;-85
2022/07/25 09:28:10;;;;;;;2.78;2.42;;;25.20;99.90;;;;;;5034195;28;20043;-85
2022/07/25 09:30:37;;;;;;;3.33;1.75;;;25.50;99.90;;;;;;5050670;28;20135;-84
2022/07/25 09:33:02;;;;;;;3.28;2.20;;;25.80;99.90;;;;;;5034548;28;20427;-85
2022/07/25 09:35:34;;;;;;;2.40;1.90;;;25.90;99.90;;;;;;5034280;28;20341;-85
2022/07/25 09:38:14;;;;;;;7.10;2.27;;;26.00;99.90;;;;;;5034112;28;20080;-86
2022/07/25 09:40:40;;;;;;;3.22;2.25;;;26.20;99.90;;;;;;5034404;28;20506;-86
2022/07/25 09:43:07;;;;;;;2.83;2.20;;;26.10;99.90;;;;;;5050672;28;20051;-86
2022/07/25 09:45:33;;;;;;;2.35;1.95;;;25.80;99.90;;;;;;5050699;28;20072;-85
2022/07/25 09:48:01;;;;;;;2.63;1.85;;;25.50;99.90;;;;;;5050646;28;20114;-86
2022/07/25 09:50:29;;;;;;;3.10;2.20;;;25.30;99.90;;;;;;5033952;28;20044;-85
2022/07/25 09:52:59;;;;;;;2.40;1.65;;;25.10;99.90;;;;;;5034071;28;20071;-85
2022/07/25 09:55:25;;;;;;;1.67;1.50;;;25.00;99.90;;;;;;5034073;28;20040;-86
2022/07/25 09:57:53;;;;;;;2.65;1.60;;;24.90;99.90;;;;;;5033787;28;20395;-86
2022/07/25 10:00:22;;;;;;;2.72;1.73;;;25.10;99.90;;;;;;5034154;28;20043;-86
2022/07/25 10:02:54;;;;;;;2.33;1.52;;;25.40;99.90;;;;;;5034047;28;20037;-86
2022/07/25 10:05:31;;;;;;;2.17;1.40;;;25.90;99.90;;;;;;5051142;28;20052;-87
2022/07/25 10:07:57;;;;;;;1.63;1.02;;;26.30;99.90;;;;;;5033642;28;20063;-86
2022/07/25 10:10:35;;;;;;;1.90;1.00;;;26.80;99.90;;;;;;5034173;28;20045;-87
2022/07/25 10:13:09;;;;;;;2.05;0.88;;;27.00;99.90;;;;;;5034255;28;20047;-86
2022/07/25 10:15:53;;;;;;;2.58;0.98;;;27.10;99.90;;;;;;5034110;28;20036;-86
2022/07/25 10:18:21;;;;;;;1.55;0.90;;;27.20;99.90;;;;;;5033697;28;20032;-86
2022/07/25 10:20:49;;;;;;;1.67;1.10;;;27.30;99.90;;;;;;5033852;28;20041;-85
2022/07/25 10:23:27;;;;;;;2.47;1.10;;;27.10;99.90;;;;;;5033882;28;20040;-85
2022/07/25 10:26:01;;;;;;;1.98;1.00;;;26.90;99.90;;;;;;5033813;28;20056;-87
2022/07/25 10:28:46;;;;;;;2.05;1.05;;;26.70;99.90;;;;;;5033587;28;20037;-86
2022/07/25 10:31:30;;;;;;;0.80;0.80;;;26.50;99.90;;;;;;5033806;28;20091;-88
2022/07/25 10:33:58;;;;;;;3.35;1.45;;;26.20;99.80;;;;;;5050523;28;20625;-86
2022/07/25 10:36:32;;;;;;;1.45;0.90;;;25.90;99.90;;;;;;5033915;28;20534;-87
2022/07/25 10:39:01;;;;;;;1.45;1.05;;;25.60;99.90;;;;;;5033820;28;20503;-86
2022/07/25 10:41:27;;;;;;;1.83;1.10;;;25.40;99.90;;;;;;5033649;28;20051;-87
2022/07/25 10:43:58;;;;;;;3.83;1.08;;;25.10;99.90;;;;;;5033627;28;20043;-87
2022/07/25 10:46:26;;;;;;;2.78;1.10;;;24.90;99.90;;;;;;5033647;28;20080;-86
2022/07/25 10:49:01;;;;;;;4.97;1.50;;;24.80;99.90;;;;;;5033501;28;20041;-87
2022/07/25 10:51:29;;;;;;;2.38;1.23;;;24.70;99.90;;;;;;5050002;28;20491;-87
2022/07/25 10:53:55;;;;;;;4.30;1.40;;;24.60;99.90;;;;;;5033368;28;20048;-86
2022/07/25 10:56:24;;;;;;;1.83;1.58;;;24.60;99.90;;;;;;5033551;28;20389;-87
2022/07/25 10:58:58;;;;;;;3.40;2.15;;;24.70;99.90;;;;;;5035409;28;20033;-86
2022/07/25 11:01:26;;;;;;;3.33;1.80;;;24.60;99.90;;;;;;5053626;28;20045;-85
2022/07/25 11:03:55;;;;;;;3.85;1.90;;;24.70;99.90;;;;;;5053689;28;20095;-87
2022/07/25 11:06:38;;;;;;;5.55;1.83;;;24.90;99.90;;;;;;5036944;28;20044;-86
2022/07/25 11:09:14;;;;;;;3.10;1.85;;;25.10;99.90;;;;;;5036869;28;20094;-85
2022/07/25 11:11:46;;;;;;;5.22;1.70;;;25.20;99.90;;;;;;5053357;28;20048;-87
2022/07/25 11:14:16;;;;;;;6.50;1.92;;;25.30;99.90;;;;;;5037230;28;20048;-87
2022/07/25 11:16:44;;;;;;;5.32;1.80;;;25.40;99.90;;;;;;5053352;28;20045;-85
2022/07/25 11:19:19;;;;;;;4.25;1.50;;;25.40;99.90;;;;;;5036489;28;20037;-87
2022/07/25 11:22:03;;;;;;;3.17;1.35;;;25.40;99.90;;;;;;5053338;28;20052;-86
2022/07/25 11:24:41;;;;;;;4.10;1.35;;;25.30;99.90;;;;;;5053296;28;20037;-86
2022/07/25 11:27:09;;;;;;;4.45;1.85;;;25.40;99.90;;;;;;5053185;28;20064;-86
2022/07/25 11:29:36;;;;;;;5.90;1.80;;;25.40;99.90;;;;;;5036762;28;20052;-86
2022/07/25 11:32:08;;;;;;;4.00;1.67;;;25.40;99.90;;;;;;5036407;28;20048;-86
2022/07/25 11:34:36;;;;;;;3.80;1.70;;;25.40;99.90;;;;;;5036584;28;20344;-87
2022/07/25 11:37:04;;;;;;;4.38;2.10;;;25.40;99.90;;;;;;5036466;28;20442;-87
2022/07/25 11:39:33;;;;;;;4.95;2.03;;;25.40;99.90;;;;;;5036310;28;20040;-88
2022/07/25 11:42:06;;;;;;;4.07;1.63;;;25.50;99.90;;;;;;5036285;28;20180;-87
2022/07/25 11:44:36;;;;;;;3.03;1.85;;;25.60;99.90;;;;;;5036610;28;20044;-85
2022/07/25 11:47:04;;;;;;;3.67;1.67;;;25.70;99.90;;;;;;5036044;28;20052;-86
2022/07/25 11:49:30;;;;;;;3.45;1.58;;;25.80;99.90;;;;;;5052781;28;20298;-85
2022/07/25 11:51:56;;;;;;;6.32;2.08;;;25.80;99.90;;;;;;5035924;28;20396;-85
2022/07/25 11:54:22;;;;;;;5.50;1.80;;;25.50;99.90;;;;;;5036062;28;20486;-85
2022/07/25 11:56:48;;;;;;;3.42;1.48;;;25.10;99.90;;;;;;5052584;28;20032;-85
2022/07/25 11:59:13;;;;;;;4.07;1.35;;;24.90;99.90;;;;;;5035956;28;20041;-85
2022/07/25 12:01:42;;;;;;;4.55;1.63;;;24.60;99.90;;;;;;5035808;28;20388;-84
2022/07/25 12:04:09;;;;;;;5.65;1.70;;;24.50;99.90;;;;;;5035985;28;20048;-85
2022/07/25 12:06:34;;;;;;;3.28;1.40;;;24.40;99.90;;;;;;5035729;28;20041;-84
2022/07/25 12:09:13;;;;;;;4.05;1.67;;;24.30;99.90;;;;;;5035524;28;20140;-85
2022/07/25 12:11:40;;;;;;;3.53;1.30;;;24.40;99.90;;;;;;5035713;28;20037;-85
2022/07/25 12:14:06;;;;;;;2.88;1.48;;;24.60;99.90;;;;;;5035808;28;20033;-84
2022/07/25 12:16:32;;;;;;;3.20;1.42;;;24.80;99.90;;;;;;5035547;28;20041;-84
2022/07/25 12:18:58;;;;;;;5.32;1.60;;;24.90;99.90;;;;;;5052220;28;20041;-85
2022/07/25 12:21:25;;;;;;;4.55;1.50;;;24.80;99.90;;;;;;5052127;28;20044;-84
2022/07/25 12:23:50;;;;;;;3.70;1.65;;;24.90;99.90;;;;;;5052042;28;20049;-83
2022/07/25 12:26:16;;;;;;;3.05;1.30;;;25.10;99.90;;;;;;5052065;28;20041;-84
2022/07/25 12:28:42;;;;;;;3.33;1.33;;;25.60;99.90;;;;;;5051852;28;20041;-84
2022/07/25 12:31:08;;;;;;;1.08;0.82;;;26.20;99.90;;;;;;5035239;28;20094;-84
2022/07/25 12:33:34;;;;;;;2.53;1.27;;;26.40;99.90;;;;;;5035494;28;20084;-85
2022/07/25 12:36:01;;;;;;;5.75;1.38;;;26.60;99.40;;;;;;5051803;28;20073;-85
2022/07/25 12:38:27;;;;;;;4.40;1.50;;;26.60;98.80;;;;;;5035011;28;20041;-85
2022/07/25 12:40:53;;;;;;;2.95;1.38;;;26.40;98.10;;;;;;5051762;28;20102;-84